createdAt,value
2022-08-09T00:01:27.864Z,99438.97
2022-08-09T00:04:33.798Z,99405.94
2022-08-09T00:07:02.219Z,99428.66
2022-08-09T00:09:29.572Z,99416.94
2022-08-09T00:12:04.085Z,99424.16
2022-08-09T00:14:37.844Z,99432.00
2022-08-09T00:17:06.126Z,99421.34
2022-08-09T00:19:34.082Z,99419.44
2022-08-09T00:22:03.592Z,99408.69
2022-08-09T00:24:32.037Z,99421.25
2022-08-09T00:27:00.884Z,99422.19
2022-08-09T00:30:09.879Z,99418.84
2022-08-09T00:32:27.057Z,99415.00
2022-08-09T00:34:54.896Z,99429.09
2022-08-09T00:37:21.856Z,99426.25
2022-08-09T00:40:12.753Z,99434.69
2022-08-09T00:44:13.222Z,99437.44
2022-08-09T00:45:24.583Z,99438.84
2022-08-09T00:47:52.488Z,99424.03
2022-08-09T00:50:23.539Z,99434.81
2022-08-09T00:52:50.822Z,99430.34
2022-08-09T00:56:03.052Z,99427.13
2022-08-09T00:58:05.962Z,99431.81
2022-08-09T01:00:40.784Z,99433.72
2022-08-09T01:03:40.676Z,99430.47
2022-08-09T01:06:25.603Z,99434.16
2022-08-09T01:09:46.885Z,99445.38
2022-08-09T01:12:55.799Z,99444.78
2022-08-09T01:15:29.402Z,99443.03
2022-08-09T01:18:05.286Z,99456.28
2022-08-09T01:21:10.216Z,99449.47
2022-08-09T01:24:02.478Z,99454.00
2022-08-09T01:26:54.066Z,99456.34
2022-08-09T01:29:55.977Z,99464.81
2022-08-09T01:32:46.059Z,99456.34
2022-08-09T01:35:37.384Z,99448.38
2022-08-09T01:38:15.395Z,99462.03
2022-08-09T01:41:05.208Z,99461.69
2022-08-09T01:43:50.354Z,99460.53
2022-08-09T01:46:28.462Z,99457.63
2022-08-09T01:49:10.566Z,99462.78
2022-08-09T01:51:44.275Z,99464.88
2022-08-09T01:54:14.179Z,99455.88
2022-08-09T01:56:47.118Z,99465.44
2022-08-09T01:59:21.305Z,99463.66
2022-08-09T02:01:59.669Z,99466.59
2022-08-09T02:04:30.050Z,99474.56
2022-08-09T02:07:08.722Z,99470.81
2022-08-09T02:10:03.804Z,99475.44
2022-08-09T02:12:35.118Z,99486.56
2022-08-09T02:15:06.359Z,99480.50
2022-08-09T02:18:01.066Z,99461.22
2022-08-09T02:20:32.756Z,99490.06
2022-08-09T02:23:17.278Z,99478.31
2022-08-09T02:25:52.744Z,99468.53
2022-08-09T02:28:36.135Z,99474.94
2022-08-09T02:31:08.247Z,99444.66
2022-08-09T02:34:06.543Z,99487.13
2022-08-09T02:36:39.886Z,99478.41
2022-08-09T02:39:19.992Z,99480.94
2022-08-09T02:42:16.722Z,99483.66
2022-08-09T02:44:55.670Z,99476.94
2022-08-09T02:47:24.350Z,99479.88
2022-08-09T02:50:01.813Z,99481.97
2022-08-09T02:52:37.962Z,99486.47
2022-08-09T02:55:20.795Z,99482.47
2022-08-09T02:58:00.269Z,99485.97
2022-08-09T03:00:58.208Z,99486.81
2022-08-09T03:03:37.214Z,99473.41
2022-08-09T03:06:15.057Z,99484.06
2022-08-09T03:08:47.514Z,99478.75
2022-08-09T03:12:04.217Z,99466.28
2022-08-09T03:14:10.634Z,99463.88
2022-08-09T03:16:44.729Z,99470.56
2022-08-09T03:19:52.370Z,99473.19
2022-08-09T03:22:06.101Z,99456.63
2022-08-09T03:24:52.414Z,99471.72
2022-08-09T03:27:22.264Z,99474.84
2022-08-09T03:29:57.579Z,99481.13
2022-08-09T03:32:30.762Z,99488.06
2022-08-09T03:34:59.286Z,99478.63
2022-08-09T03:37:54.681Z,99484.69
2022-08-09T03:40:18.200Z,99497.91
2022-08-09T03:42:46.806Z,99482.06
2022-08-09T03:45:15.576Z,99495.63
2022-08-09T03:47:46.499Z,99513.19
2022-08-09T03:50:14.626Z,99507.53
2022-08-09T03:52:58.315Z,99488.22
2022-08-09T03:55:26.662Z,99494.50
2022-08-09T03:58:06.376Z,99481.38
2022-08-09T04:00:39.063Z,99494.88
2022-08-09T04:03:06.975Z,99497.97
2022-08-09T04:05:33.868Z,99511.91
2022-08-09T04:08:07.437Z,99504.56
2022-08-09T04:10:35.791Z,99517.97
2022-08-09T04:13:09.438Z,99499.50
2022-08-09T04:16:17.733Z,99511.69
2022-08-09T04:18:26.126Z,99496.31
2022-08-09T04:20:55.427Z,99508.25
2022-08-09T04:23:24.934Z,99508.34
2022-08-09T04:25:54.712Z,99515.91
2022-08-09T04:28:33.873Z,99525.91
2022-08-09T04:31:08.406Z,99531.41
2022-08-09T04:33:52.037Z,99530.22
2022-08-09T04:36:23.286Z,99528.84
2022-08-09T04:38:50.312Z,99518.59
2022-08-09T04:41:17.203Z,99539.16
2022-08-09T04:43:53.860Z,99532.75
2022-08-09T04:46:37.946Z,99543.31
2022-08-09T04:49:30.127Z,99534.19
2022-08-09T04:52:07.501Z,99557.47
2022-08-09T04:54:36.602Z,99565.16
2022-08-09T04:57:03.915Z,99556.00
2022-08-09T04:59:31.604Z,99549.09
2022-08-09T05:01:58.933Z,99560.09
2022-08-09T05:04:30.635Z,99572.00
2022-08-09T05:06:58.732Z,99559.81
2022-08-09T05:09:41.880Z,99567.19
2022-08-09T05:12:11.121Z,99575.00
2022-08-09T05:14:41.187Z,99565.97
2022-08-09T05:17:15.408Z,99569.94
2022-08-09T05:19:56.619Z,99559.66
2022-08-09T05:22:33.141Z,99548.53
2022-08-09T05:25:04.807Z,99578.25
2022-08-09T05:27:31.681Z,99570.88
2022-08-09T05:29:59.067Z,99575.69
2022-08-09T05:32:30.026Z,99587.28
2022-08-09T05:34:57.081Z,99584.44
2022-08-09T05:37:25.174Z,99591.97
2022-08-09T05:39:52.396Z,99590.97
2022-08-09T05:42:21.861Z,99585.28
2022-08-09T05:44:55.865Z,99587.56
2022-08-09T05:47:25.307Z,99594.50
2022-08-09T05:50:34.947Z,99592.75
2022-08-09T05:52:44.397Z,99586.34
2022-08-09T05:55:21.232Z,99572.94
2022-08-09T05:57:57.587Z,99590.66
2022-08-09T06:00:28.737Z,99583.75
2022-08-09T06:02:57.903Z,99588.50
2022-08-09T06:05:31.108Z,99573.59
2022-08-09T06:08:19.344Z,99564.47
2022-08-09T06:10:52.166Z,99566.66
2022-08-09T06:13:20.708Z,99583.31
2022-08-09T06:15:52.939Z,99585.13
2022-08-09T06:18:25.198Z,99592.34
2022-08-09T06:20:58.443Z,99598.34
2022-08-09T06:23:55.185Z,99593.94
2022-08-09T06:26:22.289Z,99584.97
2022-08-09T06:29:00.022Z,99605.41
2022-08-09T06:31:31.488Z,99606.66
2022-08-09T06:34:06.877Z,99593.75
2022-08-09T06:36:34.325Z,99600.03
2022-08-09T06:39:02.749Z,99604.44
2022-08-09T06:42:07.688Z,99592.28
2022-08-09T06:44:23.010Z,99596.06
2022-08-09T06:46:54.961Z,99586.41
2022-08-09T06:49:44.429Z,99565.22
2022-08-09T06:52:12.129Z,99601.88
2022-08-09T06:54:42.725Z,99616.69
2022-08-09T06:57:11.922Z,99612.78
2022-08-09T07:00:50.247Z,99619.50
2022-08-09T07:02:31.012Z,99611.09
2022-08-09T07:05:00.271Z,99605.00
2022-08-09T07:07:58.664Z,99607.78
2022-08-09T07:10:24.402Z,99570.13
2022-08-09T07:12:57.133Z,99610.41
2022-08-09T07:16:34.852Z,99607.66
2022-08-09T07:18:11.729Z,99609.91
2022-08-09T07:20:43.331Z,99601.31
2022-08-09T07:23:18.328Z,99591.03
2022-08-09T07:25:48.374Z,99611.16
2022-08-09T07:28:28.058Z,99619.91
2022-08-09T07:30:55.675Z,99587.63
2022-08-09T07:33:23.295Z,99619.97
2022-08-09T07:35:54.057Z,99618.56
2022-08-09T07:38:23.493Z,99605.69
2022-08-09T07:41:00.846Z,99618.03
2022-08-09T07:43:41.387Z,99615.94
2022-08-09T07:46:19.149Z,99604.66
2022-08-09T07:48:59.648Z,99621.06
2022-08-09T07:52:03.170Z,99609.75
2022-08-09T07:54:14.986Z,99611.03
2022-08-09T07:56:48.915Z,99607.72
2022-08-09T07:59:33.798Z,99611.44
2022-08-09T08:02:05.875Z,99615.28
2022-08-09T08:04:33.129Z,99592.44
2022-08-09T08:07:15.598Z,99591.72
2022-08-09T08:10:05.853Z,99611.81
2022-08-09T08:12:43.530Z,99600.31
2022-08-09T08:15:14.124Z,99612.91
2022-08-09T08:17:54.636Z,99593.66
2022-08-09T08:20:32.329Z,99608.81
2022-08-09T08:23:16.983Z,99610.13
2022-08-09T08:25:48.432Z,99603.88
2022-08-09T08:28:26.107Z,99612.47
2022-08-09T08:31:02.476Z,99602.38
2022-08-09T08:33:52.218Z,99597.63
2022-08-09T08:36:28.417Z,99602.69
2022-08-09T08:38:56.758Z,99610.16
2022-08-09T08:41:41.893Z,99613.84
2022-08-09T08:44:14.392Z,99611.72
2022-08-09T08:47:02.139Z,99599.25
2022-08-09T08:49:46.450Z,99611.22
2022-08-09T08:52:48.474Z,99614.19
2022-08-09T08:55:04.002Z,99604.50
2022-08-09T08:57:34.671Z,99613.34
2022-08-09T09:00:13.079Z,99613.34
2022-08-09T09:02:52.878Z,99618.56
2022-08-09T09:05:33.036Z,99590.19
2022-08-09T09:08:30.157Z,99578.41
2022-08-09T09:11:02.476Z,99613.41
2022-08-09T09:13:41.572Z,99609.84
2022-08-09T09:16:29.944Z,99604.72
2022-08-09T09:19:36.774Z,99605.97
2022-08-09T09:22:04.935Z,99604.00
2022-08-09T09:24:43.688Z,99595.34
2022-08-09T09:28:06.519Z,99595.81
2022-08-09T09:30:27.380Z,99592.47
2022-08-09T09:33:15.549Z,99580.34
2022-08-09T09:36:02.410Z,99571.03
2022-08-09T09:38:47.891Z,99583.69
2022-08-09T09:41:24.028Z,99591.38
2022-08-09T09:44:11.398Z,99578.69
2022-08-09T09:46:45.907Z,99583.13
2022-08-09T09:49:49.811Z,99578.06
2022-08-09T09:52:16.436Z,99562.97
2022-08-09T09:55:27.818Z,99573.06
2022-08-09T09:58:18.669Z,99576.94
2022-08-09T10:00:58.799Z,99583.66
2022-08-09T10:03:57.777Z,99566.38
2022-08-09T10:06:42.798Z,99560.31
2022-08-09T10:09:22.639Z,99570.16
2022-08-09T10:12:11.691Z,99555.84
2022-08-09T10:14:43.921Z,99563.69
2022-08-09T10:17:50.609Z,99557.13
2022-08-09T10:20:27.448Z,99568.66
2022-08-09T10:23:20.478Z,99562.50
2022-08-09T10:26:04.934Z,99579.44
2022-08-09T10:28:37.440Z,99574.53
2022-08-09T10:34:10.506Z,99581.22
2022-08-09T10:36:42.933Z,99561.06
2022-08-09T10:39:15.423Z,99556.44
2022-08-09T10:41:46.209Z,99546.47
2022-08-09T10:44:19.391Z,99561.00
2022-08-09T10:48:12.501Z,99550.19
2022-08-09T10:50:31.303Z,99540.63
2022-08-09T10:53:21.175Z,99542.81
2022-08-09T10:55:55.356Z,99536.00
2022-08-09T10:58:34.697Z,99529.22
2022-08-09T11:03:02.915Z,99527.72
2022-08-09T11:04:20.037Z,99541.16
2022-08-09T11:06:58.076Z,99545.50
2022-08-09T11:09:41.213Z,99544.72
2022-08-09T11:12:15.072Z,99549.00
2022-08-09T11:14:57.385Z,99544.13
2022-08-09T11:17:27.276Z,99548.31
2022-08-09T11:20:20.011Z,99550.72
2022-08-09T11:22:57.038Z,99541.22
2022-08-09T11:25:45.235Z,99539.78
2022-08-09T11:28:54.439Z,99527.56
2022-08-09T11:31:49.580Z,99526.06
2022-08-09T11:34:24.914Z,99529.69
2022-08-09T11:36:52.967Z,99521.81
2022-08-09T11:39:20.043Z,99522.16
2022-08-09T11:41:47.024Z,99536.34
2022-08-09T11:44:15.764Z,99523.91
2022-08-09T11:46:57.980Z,99532.53
2022-08-09T11:50:53.894Z,99525.22
2022-08-09T11:53:28.186Z,99528.72
2022-08-09T11:55:52.261Z,99500.69
2022-08-09T11:58:30.453Z,99520.31
2022-08-09T12:01:09.057Z,99511.94
2022-08-09T12:04:01.502Z,99503.31
2022-08-09T12:06:32.010Z,99500.34
2022-08-09T12:09:03.688Z,99495.34
2022-08-09T12:11:44.503Z,99504.31
2022-08-09T12:14:36.523Z,99495.88
2022-08-09T12:17:33.807Z,99492.69
2022-08-09T12:19:59.498Z,99492.47
2022-08-09T12:22:27.949Z,99494.84
2022-08-09T12:25:36.568Z,99482.78
2022-08-09T12:29:11.408Z,99487.28
2022-08-09T12:31:31.180Z,99484.16
2022-08-09T12:34:13.890Z,99491.69
2022-08-09T12:36:58.666Z,99487.47
2022-08-09T12:39:37.802Z,99491.78
2022-08-09T12:42:11.230Z,99482.50
2022-08-09T12:44:46.282Z,99463.63
2022-08-09T12:47:22.884Z,99474.00
2022-08-09T12:50:09.566Z,99469.03
2022-08-09T12:52:58.322Z,99474.28
2022-08-09T12:56:14.242Z,99468.91
2022-08-09T12:58:24.163Z,99459.34
2022-08-09T13:00:54.522Z,99478.19
2022-08-09T13:03:58.429Z,99468.78
2022-08-09T13:06:34.274Z,99472.16
2022-08-09T13:09:15.983Z,99461.09
2022-08-09T13:11:46.940Z,99479.84
2022-08-09T13:14:40.698Z,99462.72
2022-08-09T13:17:16.184Z,99461.44
2022-08-09T13:20:08.901Z,99443.00
2022-08-09T13:23:05.297Z,99452.03
2022-08-09T13:25:54.379Z,99426.59
2022-08-09T13:28:34.506Z,99445.19
2022-08-09T13:32:15.195Z,99442.25
2022-08-09T13:33:58.699Z,99442.34
2022-08-09T13:36:42.236Z,99437.47
2022-08-09T13:41:50.376Z,99439.97
2022-08-09T13:42:03.301Z,99432.75
2022-08-09T13:44:31.170Z,99425.25
2022-08-09T13:47:29.011Z,99429.47
2022-08-09T13:49:56.386Z,99416.41
2022-08-09T13:52:29.409Z,99430.03
2022-08-09T13:54:59.936Z,99435.09
2022-08-09T13:57:39.917Z,99418.34
2022-08-09T14:00:18.726Z,99409.75
2022-08-09T14:03:03.977Z,99411.06
2022-08-09T14:05:57.355Z,99416.97
2022-08-09T14:08:24.247Z,99421.94
2022-08-09T14:10:54.129Z,99425.34
2022-08-09T14:14:16.368Z,99427.06
2022-08-09T14:16:14.116Z,99434.53
2022-08-09T14:18:43.313Z,99425.25
2022-08-09T14:21:17.786Z,99429.56
2022-08-09T14:23:54.933Z,99407.75
2022-08-09T14:26:32.127Z,99423.47
2022-08-09T14:29:07.546Z,99417.63
2022-08-09T14:31:52.073Z,99421.09
2022-08-09T14:34:27.299Z,99415.94
2022-08-09T14:37:09.308Z,99408.56
2022-08-09T14:39:45.134Z,99410.09
2022-08-09T14:42:13.386Z,99412.59
2022-08-09T14:46:57.306Z,99405.28
2022-08-09T14:47:56.978Z,99402.59
2022-08-09T14:50:24.707Z,99413.91
2022-08-09T14:52:51.543Z,99403.06
2022-08-09T14:55:20.476Z,99410.88
2022-08-09T14:57:49.135Z,99404.75
2022-08-09T15:00:17.160Z,99400.97
2022-08-09T15:02:47.791Z,99401.69
2022-08-09T15:05:19.251Z,99405.53
2022-08-09T15:07:56.233Z,99399.19
2022-08-09T15:10:25.533Z,99408.88
2022-08-09T15:12:54.178Z,99405.00
2022-08-09T15:15:22.117Z,99398.13
2022-08-09T15:17:52.571Z,99386.69
2022-08-09T15:21:53.674Z,99381.63
2022-08-09T15:24:01.448Z,99399.06
2022-08-09T15:26:02.612Z,99398.91
2022-08-09T15:28:33.557Z,99391.59
2022-08-09T15:31:13.193Z,99370.03
2022-08-09T15:34:18.281Z,99383.31
2022-08-09T15:36:33.854Z,99382.38
2022-08-09T15:39:01.645Z,99378.31
2022-08-09T15:41:32.237Z,99371.16
2022-08-09T15:44:03.796Z,99386.88
2022-08-09T15:46:34.130Z,99377.59
2022-08-09T15:49:21.722Z,99385.06
2022-08-09T15:52:04.461Z,99381.09
2022-08-09T15:54:44.889Z,99362.69
2022-08-09T15:57:35.733Z,99377.53
2022-08-09T16:00:15.226Z,99373.22
2022-08-09T16:02:53.999Z,99383.53
2022-08-09T16:05:24.277Z,99378.56
2022-08-09T16:07:51.334Z,99373.91
2022-08-09T16:10:38.796Z,99362.88
2022-08-09T16:13:20.865Z,99369.91
2022-08-09T16:16:09.803Z,99367.91
2022-08-09T16:18:44.718Z,99373.13
2022-08-09T16:21:17.524Z,99375.63
2022-08-09T16:23:58.554Z,99381.41
2022-08-09T16:26:35.664Z,99371.78
2022-08-09T16:29:11.698Z,99374.44
2022-08-09T16:32:17.720Z,99346.22
2022-08-09T16:34:55.352Z,99368.91
2022-08-09T16:37:20.365Z,99376.34
2022-08-09T16:40:09.958Z,99361.09
2022-08-09T16:42:37.951Z,99351.41
2022-08-09T16:45:06.979Z,99363.09
2022-08-09T16:48:38.847Z,99371.13
2022-08-09T16:50:31.111Z,99358.88
2022-08-09T16:53:01.856Z,99377.09
2022-08-09T16:55:44.290Z,99379.41
2022-08-09T16:58:17.121Z,99375.06
2022-08-09T17:00:46.323Z,99378.75
2022-08-09T17:03:22.015Z,99373.78
2022-08-09T17:06:08.550Z,99362.56
2022-08-09T17:08:58.864Z,99375.44
2022-08-09T17:11:39.934Z,99352.19
2022-08-09T17:14:26.738Z,99353.59
2022-08-09T17:16:59.906Z,99375.81
2022-08-09T17:19:46.786Z,99381.69
2022-08-09T17:22:14.801Z,99369.91
2022-08-09T17:24:47.851Z,99373.22
2022-08-09T17:27:22.962Z,99377.72
2022-08-09T17:29:51.176Z,99365.09
2022-08-09T17:32:20.044Z,99373.63
2022-08-09T17:35:07.406Z,99362.03
2022-08-09T17:38:14.613Z,99376.00
2022-08-09T17:40:25.979Z,99374.28
2022-08-09T17:42:59.782Z,99365.66
2022-08-09T17:46:04.389Z,99374.50
2022-08-09T17:48:29.471Z,99366.78
2022-08-09T17:51:08.758Z,99388.56
2022-08-09T17:53:51.423Z,99395.09
2022-08-09T17:56:27.633Z,99389.66
2022-08-09T17:58:57.844Z,99374.19
2022-08-09T18:01:25.049Z,99382.38
2022-08-09T18:03:54.695Z,99386.41
2022-08-09T18:06:31.670Z,99396.78
2022-08-09T18:09:05.567Z,99384.72
2022-08-09T18:12:05.626Z,99376.94
2022-08-09T18:14:22.909Z,99400.56
2022-08-09T18:16:50.791Z,99402.09
2022-08-09T18:20:59.057Z,99400.13
2022-08-09T18:22:13.229Z,99402.84
2022-08-09T18:24:44.295Z,99394.41
2022-08-09T18:27:33.670Z,99409.38
2022-08-09T18:30:35.737Z,99389.63
2022-08-09T18:32:54.126Z,99404.75
2022-08-09T18:35:48.060Z,99402.00
2022-08-09T18:38:09.738Z,99410.47
2022-08-09T18:40:38.797Z,99406.22
2022-08-09T18:43:05.624Z,99418.69
2022-08-09T18:46:48.423Z,99408.56
2022-08-09T18:48:19.242Z,99424.53
2022-08-09T18:50:47.301Z,99417.41
2022-08-09T18:53:16.540Z,99417.72
2022-08-09T18:55:56.614Z,99424.88
2022-08-09T18:58:32.502Z,99420.59
2022-08-09T19:01:00.647Z,99440.69
2022-08-09T19:03:28.813Z,99440.53
2022-08-09T19:06:04.241Z,99457.47
2022-08-09T19:08:32.704Z,99438.88
2022-08-09T19:10:59.754Z,99445.97
2022-08-09T19:13:49.860Z,99457.59
2022-08-09T19:16:13.445Z,99460.75
2022-08-09T19:18:48.581Z,99454.94
2022-08-09T19:21:16.572Z,99456.06
2022-08-09T19:24:33.050Z,99463.03
2022-08-09T19:26:35.669Z,99465.00
2022-08-09T19:29:09.768Z,99472.25
2022-08-09T19:31:45.643Z,99459.38
2022-08-09T19:34:22.226Z,99478.66
2022-08-09T19:36:54.858Z,99471.28
2022-08-09T19:39:42.992Z,99479.53
2022-08-09T19:42:14.942Z,99484.84
2022-08-09T19:44:50.701Z,99483.81
2022-08-09T19:47:22.723Z,99472.94
2022-08-09T19:50:08.985Z,99494.69
2022-08-09T19:52:49.787Z,99489.50
2022-08-09T19:55:25.580Z,99480.53
2022-08-09T19:57:57.804Z,99486.00
2022-08-09T20:00:24.660Z,99491.09
2022-08-09T20:04:17.045Z,99477.25
2022-08-09T20:05:41.372Z,99485.91
2022-08-09T20:08:16.136Z,99487.50
2022-08-09T20:10:52.295Z,99491.53
2022-08-09T20:13:21.169Z,99493.28
2022-08-09T20:16:32.766Z,99486.28
2022-08-09T20:18:35.589Z,99500.22
2022-08-09T20:21:03.220Z,99483.00
2022-08-09T20:23:38.850Z,99480.44
2022-08-09T20:26:07.808Z,99501.72
2022-08-09T20:28:48.375Z,99469.50
2022-08-09T20:31:16.904Z,99502.91
2022-08-09T20:33:44.638Z,99472.66
2022-08-09T20:36:12.682Z,99500.75
2022-08-09T20:41:35.589Z,99493.31
2022-08-09T20:44:10.375Z,99496.97
2022-08-09T20:46:43.346Z,99486.44
2022-08-09T20:49:13.582Z,99495.50
2022-08-09T20:51:42.135Z,99492.41
2022-08-09T20:54:16.720Z,99502.63
2022-08-09T20:56:49.699Z,99485.56
2022-08-09T20:59:50.240Z,99503.25
2022-08-09T21:02:10.445Z,99502.69
2022-08-09T21:05:53.402Z,99506.50
2022-08-09T21:07:38.787Z,99500.13
2022-08-09T21:10:11.820Z,99506.69
2022-08-09T21:12:39.035Z,99505.31
2022-08-09T21:15:10.799Z,99515.34
2022-08-09T21:18:20.878Z,99495.88
2022-08-09T21:20:30.253Z,99529.25
2022-08-09T21:22:59.319Z,99513.13
2022-08-09T21:25:56.298Z,99509.25
2022-08-09T21:28:34.267Z,99520.53
2022-08-09T21:31:16.131Z,99524.84
2022-08-09T21:33:52.680Z,99522.06
2022-08-09T21:36:23.454Z,99511.63
2022-08-09T21:38:57.523Z,99510.09
2022-08-09T21:42:04.588Z,99513.31
2022-08-09T21:44:34.272Z,99530.41
2022-08-09T21:47:07.892Z,99520.13
2022-08-09T21:49:43.329Z,99523.69
2022-08-09T21:52:17.751Z,99504.31
2022-08-09T21:55:02.788Z,99515.44
2022-08-09T21:57:38.788Z,99532.53
2022-08-09T22:00:25.217Z,99534.19
2022-08-09T22:02:58.717Z,99531.34
2022-08-09T22:05:37.024Z,99518.13
2022-08-09T22:08:12.827Z,99525.19
2022-08-09T22:11:00.736Z,99540.47
2022-08-09T22:13:31.392Z,99531.28
2022-08-09T22:16:07.754Z,99520.41
2022-08-09T22:18:52.120Z,99532.41
2022-08-09T22:21:45.326Z,99537.06
2022-08-09T22:24:21.013Z,99535.78
2022-08-09T22:26:52.452Z,99529.75
2022-08-09T22:29:28.864Z,99543.09
2022-08-09T22:32:06.296Z,99524.44
2022-08-09T22:34:59.082Z,99534.03
2022-08-09T22:37:31.404Z,99534.41
2022-08-09T22:40:09.538Z,99538.19
2022-08-09T22:42:37.768Z,99527.03
2022-08-09T22:48:13.802Z,99534.03
2022-08-09T22:48:14.403Z,99544.84
2022-08-09T22:50:40.167Z,99532.94
2022-08-09T22:53:07.039Z,99540.03
2022-08-09T22:56:06.428Z,99528.06
2022-08-09T22:58:32.268Z,99548.50
2022-08-09T23:01:05.616Z,99535.25
2022-08-09T23:04:04.111Z,99551.78
2022-08-09T23:06:35.025Z,99548.44
2022-08-09T23:09:07.177Z,99539.00
2022-08-09T23:11:34.321Z,99536.88
2022-08-09T23:14:02.803Z,99532.38
2022-08-09T23:16:29.622Z,99525.69
2022-08-09T23:18:56.456Z,99541.50
2022-08-09T23:21:25.260Z,99521.66
2022-08-09T23:24:05.276Z,99522.34
2022-08-09T23:26:38.513Z,99524.41
2022-08-09T23:29:07.715Z,99524.78
2022-08-09T23:31:34.574Z,99529.22
2022-08-09T23:34:03.687Z,99513.59
2022-08-09T23:36:31.349Z,99503.31
2022-08-09T23:38:58.169Z,99508.00
2022-08-09T23:41:28.719Z,99520.25
2022-08-09T23:44:01.424Z,99514.41
2022-08-09T23:46:30.059Z,99519.78
2022-08-09T23:48:58.172Z,99505.81
2022-08-09T23:51:25.671Z,99515.59
2022-08-09T23:53:55.181Z,99504.97
2022-08-09T23:56:53.766Z,99499.00
2022-08-09T23:59:16.553Z,99517.75
